Time;durP1;ratioP1;P1;durP2;ratioP2;P2;SDS_P1;SDS_P2;PMS_P1;PMS_P2;Temp;Humidity;BMP_temperature;BMP_pressure;BME280_temperature;BME280_humidity;BME280_pressure;Samples;Min_cycle;Max_cycle;Signal;HPM_P1;HPM_P2
2024/03/15 00:00:02;;;;;;;9.33;6.00;;;13.00;99.90;;;;;;4943137;28;20215;-65
2024/03/15 00:02:31;;;;;;;9.17;5.30;;;13.00;99.90;;;;;;4928939;28;20207;-65
2024/03/15 00:04:59;;;;;;;8.50;5.30;;;13.00;99.90;;;;;;4931243;29;20220;-65
2024/03/15 00:07:28;;;;;;;10.07;5.00;;;12.90;99.90;;;;;;4924718;29;20243;-65
2024/03/15 00:09:56;;;;;;;6.67;5.40;;;12.90;99.90;;;;;;4931282;28;20236;-65
2024/03/15 00:12:25;;;;;;;11.37;5.30;;;12.90;99.90;;;;;;4948144;28;20216;-65
2024/03/15 00:14:55;;;;;;;8.70;4.87;;;12.90;99.90;;;;;;4946135;28;20224;-66
2024/03/15 00:17:23;;;;;;;7.50;5.30;;;12.90;99.90;;;;;;4931160;29;20200;-66
2024/03/15 00:19:52;;;;;;;10.37;5.30;;;12.90;99.90;;;;;;4945151;28;20310;-66
2024/03/15 00:22:22;;;;;;;7.93;4.93;;;12.90;99.90;;;;;;4930290;29;20224;-65
2024/03/15 00:24:50;;;;;;;6.40;5.50;;;12.90;99.90;;;;;;4915527;29;20232;-65
2024/03/15 00:27:19;;;;;;;9.67;5.20;;;13.00;99.90;;;;;;4926931;28;20222;-65
2024/03/15 00:29:47;;;;;;;6.30;5.07;;;13.00;98.00;;;;;;4907421;28;20271;-65
2024/03/15 00:32:16;;;;;;;6.87;5.33;;;13.00;99.90;;;;;;4930095;28;21433;-65
2024/03/15 00:34:44;;;;;;;10.67;5.90;;;12.90;99.90;;;;;;4916090;29;20216;-65
2024/03/15 00:37:13;;;;;;;12.00;5.57;;;12.90;99.90;;;;;;4913643;28;20233;-65
2024/03/15 00:39:41;;;;;;;6.60;5.00;;;13.00;99.90;;;;;;4933802;28;20221;-65
2024/03/15 00:42:09;;;;;;;6.97;5.17;;;13.10;99.20;;;;;;4926232;29;20763;-65
2024/03/15 00:44:38;;;;;;;5.93;5.00;;;13.10;95.50;;;;;;4929191;28;20224;-65
2024/03/15 00:47:07;;;;;;;5.53;4.63;;;13.10;95.00;;;;;;4933000;28;20251;-65
2024/03/15 00:49:35;;;;;;;5.43;4.63;;;13.10;96.80;;;;;;4953473;28;20271;-65
2024/03/15 00:52:04;;;;;;;6.20;5.33;;;13.10;94.80;;;;;;4929630;28;20239;-65
2024/03/15 00:54:34;;;;;;;7.17;5.17;;;13.20;95.70;;;;;;4936714;28;20216;-65
2024/03/15 00:57:05;;;;;;;10.10;5.50;;;13.20;91.60;;;;;;4914635;28;20309;-65
2024/03/15 00:59:34;;;;;;;7.30;5.30;;;13.20;90.70;;;;;;4937768;28;20694;-65
2024/03/15 01:02:02;;;;;;;6.87;5.20;;;13.20;91.00;;;;;;4933537;29;20204;-65
2024/03/15 01:04:30;;;;;;;6.27;5.13;;;13.10;94.70;;;;;;4927059;28;20229;-65
2024/03/15 01:06:59;;;;;;;5.63;5.13;;;13.10;97.50;;;;;;4927526;29;20228;-65
2024/03/15 01:09:29;;;;;;;11.70;5.50;;;13.10;99.00;;;;;;4914272;28;20311;-65
2024/03/15 01:11:58;;;;;;;7.73;5.23;;;13.10;99.60;;;;;;4914445;29;20216;-65
2024/03/15 01:14:27;;;;;;;9.53;5.80;;;13.10;99.70;;;;;;4917924;28;20192;-64
2024/03/15 01:16:55;;;;;;;6.40;4.83;;;13.00;99.90;;;;;;4922229;29;20193;-65
2024/03/15 01:19:26;;;;;;;8.87;5.27;;;13.10;97.90;;;;;;4914095;28;20256;-66
2024/03/15 01:21:55;;;;;;;7.97;5.00;;;13.10;96.80;;;;;;4917516;28;20315;-66
2024/03/15 01:24:24;;;;;;;5.73;4.57;;;13.20;96.30;;;;;;4920584;29;20595;-65
2024/03/15 01:26:52;;;;;;;8.37;5.27;;;13.10;99.20;;;;;;4933133;28;20307;-65
2024/03/15 01:29:22;;;;;;;8.60;5.70;;;13.10;99.70;;;;;;4915555;29;20295;-65
2024/03/15 01:31:51;;;;;;;7.20;5.10;;;13.10;99.90;;;;;;4906306;29;20232;-65
2024/03/15 01:34:19;;;;;;;6.50;5.07;;;13.00;99.90;;;;;;4932509;28;20223;-65
2024/03/15 01:36:48;;;;;;;7.03;4.80;;;13.00;99.90;;;;;;4931277;28;20229;-65
2024/03/15 01:39:16;;;;;;;8.30;5.50;;;13.10;99.90;;;;;;4931182;28;20251;-65
2024/03/15 01:41:44;;;;;;;9.27;5.33;;;13.00;99.90;;;;;;4930082;28;20197;-65
2024/03/15 01:44:13;;;;;;;6.30;4.83;;;13.00;99.90;;;;;;4914248;29;20231;-65
2024/03/15 01:46:42;;;;;;;4.73;4.43;;;13.00;99.90;;;;;;4932268;28;20291;-66
2024/03/15 01:49:10;;;;;;;6.30;5.07;;;13.00;99.90;;;;;;4929532;28;20598;-66
2024/03/15 01:51:39;;;;;;;9.77;4.97;;;12.90;99.90;;;;;;4916484;28;20306;-65
2024/03/15 01:54:10;;;;;;;7.33;5.23;;;12.90;99.90;;;;;;4928634;28;20235;-66
2024/03/15 01:56:39;;;;;;;5.30;4.80;;;12.90;99.90;;;;;;4933544;28;20209;-66
2024/03/15 01:59:11;;;;;;;8.00;5.27;;;12.90;99.90;;;;;;4935193;28;20200;-65
2024/03/15 02:01:39;;;;;;;5.27;4.73;;;12.90;99.90;;;;;;4931311;29;20226;-66
2024/03/15 02:04:08;;;;;;;7.67;5.30;;;12.90;99.90;;;;;;4947842;28;20231;-65
2024/03/15 02:06:38;;;;;;;5.97;5.40;;;12.90;99.90;;;;;;4947150;28;20617;-65
2024/03/15 02:09:07;;;;;;;5.73;5.20;;;12.80;99.90;;;;;;4922839;28;20228;-65
2024/03/15 02:11:35;;;;;;;9.97;5.33;;;12.80;99.90;;;;;;4937278;28;20320;-66
2024/03/15 02:14:04;;;;;;;7.53;5.20;;;12.80;99.90;;;;;;4934545;28;20226;-65
2024/03/15 02:16:34;;;;;;;8.50;5.10;;;12.80;99.90;;;;;;4920270;28;20782;-65
2024/03/15 02:19:02;;;;;;;5.70;5.20;;;12.80;99.90;;;;;;4922987;29;21390;-65
2024/03/15 02:21:31;;;;;;;5.40;4.90;;;12.80;99.90;;;;;;4919020;29;20219;-65
2024/03/15 02:24:00;;;;;;;8.93;5.13;;;12.80;99.90;;;;;;4916714;28;20220;-65
2024/03/15 02:26:29;;;;;;;6.57;4.80;;;12.80;99.90;;;;;;4930252;28;20212;-65
2024/03/15 02:28:57;;;;;;;9.67;5.13;;;12.80;99.90;;;;;;4916161;28;20579;-65
2024/03/15 02:31:26;;;;;;;8.40;5.07;;;12.80;99.90;;;;;;4935291;28;20950;-65
2024/03/15 02:33:55;;;;;;;7.90;5.23;;;12.70;99.90;;;;;;4930547;28;20259;-65
2024/03/15 02:36:24;;;;;;;5.60;5.10;;;12.70;99.90;;;;;;4931136;28;20288;-65
2024/03/15 02:38:53;;;;;;;6.87;4.90;;;12.70;99.90;;;;;;4919145;29;20223;-65
2024/03/15 02:41:26;;;;;;;7.07;4.73;;;12.70;99.90;;;;;;4916709;29;20209;-65
2024/03/15 02:43:56;;;;;;;5.47;4.47;;;12.80;99.90;;;;;;4935242;28;20228;-65
2024/03/15 02:46:25;;;;;;;8.67;4.80;;;12.80;99.90;;;;;;4932479;28;20232;-65
2024/03/15 02:48:53;;;;;;;5.90;4.67;;;12.80;99.90;;;;;;4924777;28;20408;-66
2024/03/15 02:51:25;;;;;;;9.00;4.90;;;12.80;99.90;;;;;;4932244;28;20718;-65
2024/03/15 02:53:55;;;;;;;6.93;5.03;;;12.80;99.90;;;;;;4934619;28;20217;-65
2024/03/15 02:56:25;;;;;;;6.30;4.50;;;12.80;99.90;;;;;;4930120;28;20197;-66
2024/03/15 02:58:54;;;;;;;6.03;4.60;;;12.80;99.90;;;;;;4931884;28;20228;-65
2024/03/15 03:01:25;;;;;;;6.37;4.83;;;12.80;99.90;;;;;;4935978;28;20243;-65
2024/03/15 03:03:53;;;;;;;8.70;5.03;;;12.80;99.90;;;;;;4943306;28;20599;-66
2024/03/15 03:06:24;;;;;;;6.13;4.67;;;12.80;99.90;;;;;;4931900;29;20307;-65
2024/03/15 03:08:52;;;;;;;5.50;4.90;;;12.80;99.90;;;;;;4934081;28;20238;-65
2024/03/15 03:11:21;;;;;;;8.00;4.70;;;12.70;99.90;;;;;;4932387;28;20197;-66
2024/03/15 03:13:49;;;;;;;7.20;4.70;;;12.70;99.90;;;;;;4914515;29;20220;-65
2024/03/15 03:16:21;;;;;;;6.97;4.70;;;12.60;99.90;;;;;;4932190;28;20326;-65
2024/03/15 03:18:52;;;;;;;9.73;5.33;;;12.60;99.90;;;;;;4924361;29;20521;-65
2024/03/15 03:21:21;;;;;;;9.37;4.90;;;12.50;99.90;;;;;;4933846;28;20299;-65
2024/03/15 03:23:56;;;;;;;5.37;4.90;;;12.50;99.90;;;;;;4936479;28;20327;-65
2024/03/15 03:26:25;;;;;;;7.37;4.57;;;12.50;99.90;;;;;;4920137;29;20224;-65
2024/03/15 03:28:53;;;;;;;6.10;4.43;;;12.60;99.90;;;;;;4930656;28;20335;-65
2024/03/15 03:31:21;;;;;;;8.43;4.20;;;12.50;99.90;;;;;;4915624;28;20594;-65
2024/03/15 03:33:50;;;;;;;9.03;4.50;;;12.60;99.90;;;;;;4920943;28;20228;-65
2024/03/15 03:36:18;;;;;;;5.90;4.43;;;12.60;99.90;;;;;;4931754;28;20220;-66
2024/03/15 03:38:47;;;;;;;7.17;5.03;;;12.70;99.90;;;;;;4932670;28;20298;-65
2024/03/15 03:41:16;;;;;;;7.23;4.43;;;12.70;99.90;;;;;;4928462;28;20205;-65
2024/03/15 03:43:44;;;;;;;5.60;4.83;;;12.80;99.90;;;;;;4897427;28;20255;-65
2024/03/15 03:46:15;;;;;;;7.23;4.23;;;12.80;99.90;;;;;;4913289;28;20348;-65
2024/03/15 03:48:43;;;;;;;7.20;4.17;;;12.80;99.90;;;;;;4912358;29;20228;-66
2024/03/15 03:51:12;;;;;;;5.47;4.70;;;12.70;99.90;;;;;;4932249;28;20221;-65
2024/03/15 03:53:40;;;;;;;8.03;4.73;;;12.70;99.90;;;;;;4932485;28;20212;-65
2024/03/15 03:56:10;;;;;;;4.93;4.47;;;12.60;99.90;;;;;;4929053;28;20204;-65
2024/03/15 03:58:38;;;;;;;7.60;4.47;;;12.50;99.90;;;;;;4928275;28;20794;-65
2024/03/15 04:01:07;;;;;;;4.63;4.17;;;12.50;99.90;;;;;;4926906;28;20224;-65
2024/03/15 04:03:36;;;;;;;4.37;3.70;;;12.50;99.90;;;;;;4928156;28;20213;-66
2024/03/15 04:06:05;;;;;;;11.00;4.40;;;12.60;99.90;;;;;;4930423;28;20523;-65
2024/03/15 04:08:34;;;;;;;4.63;3.70;;;12.60;99.90;;;;;;4911157;28;20199;-65
2024/03/15 04:11:04;;;;;;;6.60;3.97;;;12.60;99.90;;;;;;4930123;28;20196;-65
2024/03/15 04:13:35;;;;;;;4.13;3.77;;;12.70;99.90;;;;;;4912269;29;20232;-65
2024/03/15 04:16:04;;;;;;;4.50;4.00;;;12.60;99.90;;;;;;4930113;28;20681;-66
2024/03/15 04:18:34;;;;;;;6.13;4.10;;;12.40;99.90;;;;;;4915641;29;20224;-65
2024/03/15 04:21:03;;;;;;;6.90;4.47;;;12.40;99.90;;;;;;4937068;28;22668;-65
2024/03/15 04:23:32;;;;;;;4.70;3.97;;;12.30;99.90;;;;;;4933680;28;20915;-65
2024/03/15 04:26:00;;;;;;;4.57;4.20;;;12.30;99.90;;;;;;4932294;28;20228;-65
2024/03/15 04:28:29;;;;;;;4.20;3.80;;;12.30;99.90;;;;;;4918216;28;20227;-65
2024/03/15 04:30:57;;;;;;;6.07;3.97;;;12.30;99.90;;;;;;4930760;28;20230;-65
2024/03/15 04:33:27;;;;;;;6.10;3.97;;;12.30;99.90;;;;;;4952257;28;20667;-66
2024/03/15 04:35:55;;;;;;;6.53;3.80;;;12.40;99.90;;;;;;4922491;29;20232;-66
2024/03/15 04:38:25;;;;;;;8.87;4.40;;;12.50;99.90;;;;;;4921916;28;20213;-66
2024/03/15 04:40:54;;;;;;;5.27;4.33;;;12.50;99.90;;;;;;4919332;28;20861;-65
2024/03/15 04:43:22;;;;;;;4.47;4.07;;;12.50;99.90;;;;;;4932554;28;20233;-65
2024/03/15 04:45:50;;;;;;;9.17;4.27;;;12.50;99.90;;;;;;4931121;28;20250;-66
2024/03/15 04:48:21;;;;;;;7.17;4.00;;;12.50;99.90;;;;;;4918094;28;20307;-65
2024/03/15 04:50:49;;;;;;;5.27;4.30;;;12.60;99.90;;;;;;4916827;28;20335;-65
2024/03/15 04:53:18;;;;;;;5.87;4.07;;;12.60;99.90;;;;;;4926770;28;20196;-65
2024/03/15 04:55:47;;;;;;;7.83;4.27;;;12.60;99.90;;;;;;4927207;29;20224;-66
2024/03/15 04:58:16;;;;;;;7.50;4.77;;;12.50;99.90;;;;;;4949071;28;20235;-65
2024/03/15 05:00:44;;;;;;;8.47;4.80;;;12.50;99.90;;;;;;4923174;28;20710;-65
2024/03/15 05:03:13;;;;;;;6.20;4.50;;;12.40;99.90;;;;;;4929761;28;20393;-65
2024/03/15 05:05:41;;;;;;;5.50;4.57;;;12.40;99.90;;;;;;4941734;28;20307;-65
2024/03/15 05:08:10;;;;;;;12.00;6.07;;;12.30;99.90;;;;;;4948512;28;20928;-65
2024/03/15 05:10:39;;;;;;;14.43;10.63;;;12.30;99.90;;;;;;4945293;28;20215;-66
2024/03/15 05:13:08;;;;;;;6.27;5.30;;;12.30;99.90;;;;;;4935406;28;20212;-65
2024/03/15 05:15:36;;;;;;;6.43;5.80;;;12.30;99.90;;;;;;4927520;29;20548;-65
2024/03/15 05:18:07;;;;;;;7.27;4.10;;;12.40;99.90;;;;;;4930453;28;20235;-66
2024/03/15 05:20:36;;;;;;;5.03;4.60;;;12.40;99.90;;;;;;4925026;28;20203;-65
2024/03/15 05:23:06;;;;;;;5.20;4.47;;;12.40;99.90;;;;;;4933406;28;20200;-65
2024/03/15 05:25:36;;;;;;;6.10;4.10;;;12.50;99.90;;;;;;4917894;29;20231;-65
2024/03/15 05:28:04;;;;;;;4.13;3.73;;;12.50;99.90;;;;;;4931305;28;20224;-66
2024/03/15 05:30:33;;;;;;;4.17;3.30;;;12.40;99.90;;;;;;4929180;28;20227;-66
2024/03/15 05:33:04;;;;;;;5.40;3.50;;;12.40;99.90;;;;;;4929156;28;20223;-65
2024/03/15 05:35:35;;;;;;;5.67;3.50;;;12.30;99.90;;;;;;4928485;28;20216;-65
2024/03/15 05:38:04;;;;;;;5.57;3.60;;;12.30;99.90;;;;;;4908890;28;20287;-65
2024/03/15 05:40:32;;;;;;;4.30;3.67;;;12.30;99.90;;;;;;4929011;28;20230;-65
2024/03/15 05:43:04;;;;;;;4.70;3.30;;;12.30;99.90;;;;;;4929211;28;20228;-65
2024/03/15 05:45:32;;;;;;;4.93;3.60;;;12.30;99.90;;;;;;4914655;28;20232;-65
2024/03/15 05:48:01;;;;;;;10.47;3.47;;;12.30;99.90;;;;;;4925724;29;20777;-65
2024/03/15 05:50:30;;;;;;;4.90;3.30;;;12.40;99.90;;;;;;4918712;28;20200;-65
2024/03/15 05:53:00;;;;;;;4.87;3.03;;;12.30;99.90;;;;;;4958383;28;20207;-65
2024/03/15 05:55:28;;;;;;;3.90;3.60;;;12.30;99.90;;;;;;4932368;28;20225;-65
2024/03/15 05:57:56;;;;;;;3.60;2.93;;;12.30;99.90;;;;;;4913860;28;20231;-65
2024/03/15 06:00:26;;;;;;;4.07;3.00;;;12.40;99.90;;;;;;4925565;28;20766;-65
2024/03/15 06:02:54;;;;;;;6.33;3.20;;;12.40;99.90;;;;;;4915482;28;20600;-65
2024/03/15 06:05:23;;;;;;;5.67;3.17;;;12.50;99.90;;;;;;4939507;28;20203;-65
2024/03/15 06:07:52;;;;;;;5.33;3.30;;;12.40;99.90;;;;;;4940903;28;20232;-65
2024/03/15 06:10:24;;;;;;;3.83;3.27;;;12.50;99.90;;;;;;4933493;28;20303;-65
2024/03/15 06:12:55;;;;;;;3.50;3.20;;;12.50;99.90;;;;;;4937121;28;20237;-65
2024/03/15 06:15:25;;;;;;;7.10;3.10;;;12.50;99.90;;;;;;4913225;29;20286;-65
2024/03/15 06:17:56;;;;;;;5.60;3.27;;;12.50;99.90;;;;;;4910807;29;20334;-65
2024/03/15 06:20:25;;;;;;;3.43;2.90;;;12.60;99.90;;;;;;4907591;29;20205;-65
2024/03/15 06:22:53;;;;;;;9.07;3.50;;;12.50;99.90;;;;;;4916269;28;20235;-65
2024/03/15 06:25:21;;;;;;;6.50;3.33;;;12.50;99.90;;;;;;4942417;28;20228;-65
2024/03/15 06:27:50;;;;;;;6.43;3.07;;;12.60;99.90;;;;;;4929156;29;20223;-65
2024/03/15 06:30:18;;;;;;;4.70;2.97;;;12.60;99.90;;;;;;4917820;28;20228;-65
2024/03/15 06:32:47;;;;;;;6.57;3.23;;;12.60;99.90;;;;;;4929168;28;20233;-65
2024/03/15 06:35:19;;;;;;;3.17;2.97;;;12.60;99.90;;;;;;4916032;29;20277;-65
2024/03/15 06:37:53;;;;;;;3.53;3.00;;;12.60;99.90;;;;;;4917962;28;20212;-65
2024/03/15 06:40:30;;;;;;;7.33;3.13;;;12.60;99.90;;;;;;4922332;29;20223;-65
2024/03/15 06:43:25;;;;;;;8.87;3.40;;;12.70;99.90;;;;;;4929018;28;20235;-65
2024/03/15 06:45:57;;;;;;;6.73;3.10;;;12.70;99.90;;;;;;4950001;28;20244;-65
2024/03/15 06:48:43;;;;;;;3.80;2.80;;;12.80;99.90;;;;;;4934559;28;20232;-65
2024/03/15 06:53:58;;;;;;;3.30;3.00;;;12.80;99.90;;;;;;4927442;28;20239;-65
2024/03/15 06:56:27;;;;;;;3.37;3.10;;;12.90;99.90;;;;;;4931302;28;20204;-65
2024/03/15 06:58:55;;;;;;;3.63;3.30;;;12.90;99.90;;;;;;4945229;28;20304;-65
2024/03/15 07:01:27;;;;;;;4.67;3.00;;;12.90;99.90;;;;;;4941617;28;20224;-65
2024/03/15 07:03:58;;;;;;;6.13;2.73;;;12.90;99.90;;;;;;4913188;28;20220;-65
2024/03/15 07:06:27;;;;;;;10.20;3.47;;;12.90;99.90;;;;;;4924532;28;20755;-65
2024/03/15 07:08:57;;;;;;;3.50;3.17;;;12.90;99.90;;;;;;4922480;29;20307;-65
2024/03/15 07:11:32;;;;;;;7.07;3.33;;;12.90;99.90;;;;;;4944980;28;20319;-65
2024/03/15 07:14:02;;;;;;;6.70;3.40;;;12.80;99.90;;;;;;4946058;28;20683;-66
2024/03/15 07:16:31;;;;;;;6.30;3.40;;;12.70;99.90;;;;;;4925541;28;20220;-65
2024/03/15 07:19:00;;;;;;;3.77;3.47;;;12.70;99.90;;;;;;4923191;29;20746;-65
2024/03/15 07:21:29;;;;;;;5.83;3.57;;;12.70;99.90;;;;;;4947130;28;20217;-65
2024/03/15 07:23:58;;;;;;;7.13;3.50;;;12.70;99.90;;;;;;4938743;28;20216;-65
2024/03/15 07:26:26;;;;;;;7.33;3.80;;;12.80;99.90;;;;;;4939121;28;20208;-64
2024/03/15 07:28:55;;;;;;;3.97;3.00;;;12.90;99.90;;;;;;4964549;28;20212;-65
2024/03/15 07:31:24;;;;;;;5.50;3.30;;;13.20;99.90;;;;;;4942442;28;20255;-65
2024/03/15 07:33:52;;;;;;;6.63;3.00;;;13.40;99.90;;;;;;4943870;28;20221;-66
2024/03/15 07:36:21;;;;;;;5.17;3.07;;;13.40;99.90;;;;;;4940387;28;20228;-65
2024/03/15 07:38:51;;;;;;;5.60;3.10;;;13.40;99.90;;;;;;4924431;28;20251;-65
2024/03/15 07:41:22;;;;;;;3.63;3.33;;;13.40;99.90;;;;;;4942275;28;20279;-65
2024/03/15 07:43:50;;;;;;;5.17;3.70;;;13.40;99.90;;;;;;4942634;28;20228;-65
2024/03/15 07:46:19;;;;;;;6.50;3.50;;;13.40;99.90;;;;;;4917139;29;20235;-65
2024/03/15 07:48:47;;;;;;;4.13;3.30;;;13.50;99.90;;;;;;4929388;28;20227;-65
2024/03/15 07:51:16;;;;;;;3.80;3.40;;;13.80;99.90;;;;;;4949298;28;20287;-65
2024/03/15 07:53:45;;;;;;;8.30;3.50;;;14.00;99.90;;;;;;4945128;28;20204;-65
2024/03/15 07:56:13;;;;;;;3.50;3.20;;;14.10;99.90;;;;;;4947070;28;20200;-65
2024/03/15 07:58:42;;;;;;;6.40;3.17;;;14.20;99.90;;;;;;4914468;29;20221;-65
2024/03/15 08:01:11;;;;;;;3.63;3.07;;;14.30;99.90;;;;;;4941740;28;20635;-65
2024/03/15 08:03:41;;;;;;;4.03;3.20;;;14.40;99.90;;;;;;4944682;28;20253;-65
2024/03/15 08:06:10;;;;;;;3.93;3.20;;;14.40;99.90;;;;;;4926358;28;20575;-65
2024/03/15 08:08:39;;;;;;;4.23;2.87;;;14.50;99.90;;;;;;4930225;29;20208;-65
2024/03/15 08:11:08;;;;;;;2.80;2.40;;;15.00;99.90;;;;;;4926006;29;20739;-65
2024/03/15 08:13:37;;;;;;;2.93;2.70;;;15.60;99.90;;;;;;4933652;29;20227;-65
2024/03/15 08:16:33;;;;;;;3.43;2.30;;;16.10;99.90;;;;;;4931969;29;20240;-66
2024/03/15 08:19:03;;;;;;;4.20;2.30;;;16.50;99.90;;;;;;4928507;28;20613;-66
2024/03/15 08:21:32;;;;;;;4.30;2.20;;;17.00;67.10;;;;;;4910476;29;20252;-65
2024/03/15 08:24:04;;;;;;;5.63;2.40;;;17.00;1.00;;;;;;4912317;28;20594;-65
2024/03/15 08:26:33;;;;;;;3.67;2.23;;;17.20;1.00;;;;;;4930446;28;20298;-66
2024/03/15 08:29:01;;;;;;;3.53;2.13;;;17.70;1.00;;;;;;4924793;28;20220;-65
2024/03/15 08:31:30;;;;;;;4.53;2.20;;;17.90;1.00;;;;;;4920466;29;20324;-65
2024/03/15 08:34:02;;;;;;;5.20;2.50;;;17.50;1.00;;;;;;4926799;28;20231;-66
2024/03/15 08:36:34;;;;;;;5.23;2.70;;;17.00;1.00;;;;;;4942373;28;20227;-66
2024/03/15 08:39:04;;;;;;;4.77;2.40;;;16.70;1.00;;;;;;4942873;28;20717;-65
2024/03/15 08:41:32;;;;;;;3.27;2.27;;;16.50;1.00;;;;;;4928700;28;20250;-66
2024/03/15 08:44:02;;;;;;;2.50;2.30;;;16.40;1.00;;;;;;4937630;28;20220;-66
2024/03/15 08:46:31;;;;;;;7.23;2.17;;;16.40;1.00;;;;;;4931633;29;20247;-66
2024/03/15 08:49:01;;;;;;;3.40;2.20;;;16.20;3.50;;;;;;4946899;28;20773;-65
2024/03/15 08:51:30;;;;;;;2.60;2.10;;;16.10;1.00;;;;;;4947719;28;20237;-65
2024/03/15 08:53:59;;;;;;;2.43;2.20;;;16.00;13.20;;;;;;4942356;28;20285;-65
2024/03/15 08:56:27;;;;;;;2.90;2.30;;;15.80;25.70;;;;;;4925781;28;20191;-65
2024/03/15 08:58:58;;;;;;;3.13;2.03;;;15.70;45.50;;;;;;4943285;28;20194;-66
2024/03/15 09:01:32;;;;;;;3.47;2.23;;;15.70;30.50;;;;;;4926040;29;20233;-66
2024/03/15 09:04:04;;;;;;;2.50;2.30;;;15.60;42.80;;;;;;4922932;29;20323;-65
2024/03/15 09:06:34;;;;;;;2.50;2.10;;;15.50;50.30;;;;;;4935979;28;20319;-65
2024/03/15 09:09:09;;;;;;;2.63;2.43;;;15.50;26.30;;;;;;4926860;28;20227;-66
2024/03/15 09:11:37;;;;;;;5.53;2.17;;;15.40;70.90;;;;;;4943041;28;20220;-66
2024/03/15 09:14:06;;;;;;;3.30;2.10;;;15.40;53.00;;;;;;4929896;29;20201;-65
2024/03/15 09:16:35;;;;;;;2.80;2.30;;;15.40;50.50;;;;;;4919408;28;20228;-66
2024/03/15 09:19:05;;;;;;;5.80;2.30;;;15.40;60.20;;;;;;4925321;28;20707;-65
2024/03/15 09:21:35;;;;;;;4.43;2.50;;;15.40;42.80;;;;;;4941091;28;20230;-66
2024/03/15 09:24:04;;;;;;;3.03;2.30;;;15.40;44.90;;;;;;4942593;28;20233;-65
2024/03/15 09:26:33;;;;;;;3.03;2.13;;;15.40;54.20;;;;;;4939335;28;20201;-65
2024/03/15 09:29:01;;;;;;;2.70;1.97;;;15.60;27.40;;;;;;4925279;28;20232;-66
2024/03/15 09:31:35;;;;;;;1.80;1.70;;;15.60;1.00;;;;;;4934322;28;20386;-66
2024/03/15 09:34:23;;;;;;;5.07;1.80;;;15.70;1.00;;;;;;4931980;28;20269;-66
2024/03/15 09:36:52;;;;;;;2.50;1.90;;;15.70;1.00;;;;;;4919766;29;20762;-66
2024/03/15 09:39:22;;;;;;;2.50;1.83;;;15.80;2.10;;;;;;4944602;28;20228;-65
2024/03/15 09:41:51;;;;;;;4.27;1.90;;;15.90;1.00;;;;;;4928172;28;20243;-66
2024/03/15 09:44:19;;;;;;;2.83;1.90;;;15.90;1.00;;;;;;4946943;28;20221;-65
2024/03/15 09:46:48;;;;;;;2.83;1.80;;;16.00;1.00;;;;;;4931437;28;20310;-66
2024/03/15 09:49:17;;;;;;;3.50;1.77;;;15.80;1.00;;;;;;4933028;29;20273;-65
2024/03/15 09:51:46;;;;;;;3.13;1.80;;;15.80;1.00;;;;;;4946239;28;20236;-65
2024/03/15 09:54:15;;;;;;;5.60;2.07;;;15.80;1.00;;;;;;4924694;28;20252;-66
2024/03/15 09:56:45;;;;;;;2.23;2.00;;;15.60;1.00;;;;;;4914247;28;20204;-65
2024/03/15 09:59:15;;;;;;;2.80;2.00;;;15.50;24.00;;;;;;4945399;28;20216;-65
2024/03/15 10:01:43;;;;;;;2.43;2.00;;;15.40;54.00;;;;;;4932546;28;20283;-65
2024/03/15 10:04:12;;;;;;;2.10;2.00;;;15.50;60.50;;;;;;4948415;28;20269;-65
2024/03/15 10:06:40;;;;;;;3.13;2.17;;;15.40;45.00;;;;;;4926936;28;20221;-65
2024/03/15 10:09:12;;;;;;;4.00;2.07;;;15.40;38.20;;;;;;4926168;29;20236;-65
2024/03/15 10:11:42;;;;;;;4.23;2.00;;;15.30;72.30;;;;;;4941933;28;20206;-65
2024/03/15 10:14:10;;;;;;;3.63;1.83;;;15.20;38.00;;;;;;4939143;28;20533;-65
2024/03/15 10:16:38;;;;;;;3.13;1.80;;;15.40;59.80;;;;;;4935627;28;20273;-66
2024/03/15 10:19:07;;;;;;;4.60;1.73;;;15.60;42.30;;;;;;4947582;28;20231;-66
2024/03/15 10:21:36;;;;;;;1.80;1.70;;;15.50;6.80;;;;;;4948733;28;20230;-65
2024/03/15 10:24:05;;;;;;;3.90;1.77;;;15.40;11.50;;;;;;4932904;29;20616;-66
2024/03/15 10:26:40;;;;;;;4.90;1.70;;;15.30;63.90;;;;;;4926876;28;20205;-66
2024/03/15 10:29:10;;;;;;;4.97;2.07;;;15.20;45.10;;;;;;4919419;28;20220;-65
2024/03/15 10:31:41;;;;;;;2.47;2.00;;;15.10;61.50;;;;;;4941602;28;20235;-65
2024/03/15 10:34:10;;;;;;;6.60;2.20;;;15.00;93.30;;;;;;4940647;28;20227;-66
2024/03/15 10:36:39;;;;;;;6.40;2.30;;;14.90;99.90;;;;;;4929429;28;20224;-65
2024/03/15 10:39:11;;;;;;;7.93;2.70;;;14.90;99.90;;;;;;4922717;29;20214;-65
2024/03/15 10:41:41;;;;;;;4.40;2.37;;;14.80;99.90;;;;;;4941675;28;20202;-65
2024/03/15 10:44:09;;;;;;;5.43;2.60;;;14.60;99.90;;;;;;4948321;28;20192;-65
2024/03/15 10:46:37;;;;;;;3.40;2.30;;;14.60;99.90;;;;;;4933592;29;20243;-66
2024/03/15 10:49:08;;;;;;;5.83;2.67;;;14.50;99.90;;;;;;4951456;28;20222;-66
2024/03/15 10:51:37;;;;;;;5.73;2.53;;;14.50;99.90;;;;;;4935131;29;20227;-66
2024/03/15 10:54:05;;;;;;;7.33;2.97;;;14.30;99.90;;;;;;4940564;28;20237;-66
2024/03/15 10:56:38;;;;;;;3.83;1.67;;;14.10;99.90;;;;;;4930080;28;20256;-65
2024/03/15 10:59:07;;;;;;;5.10;1.10;;;13.70;99.90;;;;;;4944944;28;20515;-66
2024/03/15 11:01:35;;;;;;;1.00;1.00;;;13.40;99.90;;;;;;4937057;28;20223;-65
2024/03/15 11:04:07;;;;;;;4.07;1.17;;;13.00;99.90;;;;;;4932065;29;20235;-65
2024/03/15 11:06:42;;;;;;;2.63;1.03;;;12.70;99.90;;;;;;4945970;28;20255;-65
2024/03/15 11:09:19;;;;;;;1.70;1.07;;;12.50;99.90;;;;;;4928666;28;20623;-65
2024/03/15 11:11:56;;;;;;;1.40;1.10;;;12.40;99.90;;;;;;4929430;28;20231;-65
2024/03/15 11:14:25;;;;;;;1.40;1.30;;;12.30;99.90;;;;;;4933860;29;20609;-65
2024/03/15 11:16:57;;;;;;;3.63;1.50;;;12.30;99.90;;;;;;4935002;29;20216;-65
2024/03/15 11:19:25;;;;;;;3.90;1.60;;;12.30;99.90;;;;;;4927496;29;20225;-65
2024/03/15 11:22:04;;;;;;;2.67;1.50;;;12.40;99.90;;;;;;4938381;28;20591;-65
2024/03/15 11:24:42;;;;;;;3.80;1.90;;;12.60;99.90;;;;;;4927519;29;20725;-65
2024/03/15 11:27:17;;;;;;;6.00;2.20;;;12.70;99.90;;;;;;4932749;28;20220;-65
2024/03/15 11:29:47;;;;;;;10.50;3.80;;;12.90;99.90;;;;;;4933655;28;20550;-65
2024/03/15 11:32:16;;;;;;;6.63;2.43;;;12.90;99.90;;;;;;4930203;28;20651;-65
2024/03/15 11:34:45;;;;;;;6.27;2.10;;;13.00;99.90;;;;;;4928658;28;20224;-65
2024/03/15 11:37:14;;;;;;;3.57;2.43;;;13.10;99.90;;;;;;4926525;29;20236;-64
2024/03/15 11:39:43;;;;;;;6.43;2.30;;;13.10;99.90;;;;;;4933144;28;20219;-64
2024/03/15 11:42:12;;;;;;;5.17;1.90;;;13.10;99.90;;;;;;4933924;28;20228;-65
2024/03/15 11:44:40;;;;;;;2.30;1.60;;;13.30;99.90;;;;;;4945229;28;20208;-64
2024/03/15 11:47:09;;;;;;;5.07;2.20;;;13.90;99.90;;;;;;4941430;28;20244;-65
2024/03/15 11:49:37;;;;;;;3.73;2.33;;;14.70;99.90;;;;;;4939982;28;20220;-64
2024/03/15 11:52:06;;;;;;;4.33;1.87;;;15.40;99.90;;;;;;4928464;29;21058;-65
2024/03/15 11:54:35;;;;;;;5.93;1.90;;;16.00;99.90;;;;;;4943994;28;20216;-65
2024/03/15 11:57:03;;;;;;;3.57;1.90;;;16.40;99.90;;;;;;4947436;28;20226;-65
2024/03/15 11:59:32;;;;;;;3.43;2.30;;;16.10;99.90;;;;;;4924297;28;20201;-63
2024/03/15 12:02:04;;;;;;;3.80;1.90;;;16.00;99.90;;;;;;4943938;28;20195;-63
2024/03/15 12:04:33;;;;;;;3.40;2.20;;;16.00;99.90;;;;;;4933223;29;20719;-62
2024/03/15 12:07:01;;;;;;;7.70;2.40;;;16.30;99.90;;;;;;4947911;28;20701;-63
2024/03/15 12:09:30;;;;;;;5.23;1.97;;;16.20;99.90;;;;;;4927134;29;20601;-63
2024/03/15 12:11:59;;;;;;;9.23;2.70;;;15.90;99.90;;;;;;4934466;28;20237;-64
2024/03/15 12:14:28;;;;;;;6.13;2.47;;;15.70;99.90;;;;;;4940663;28;20426;-64
2024/03/15 12:16:56;;;;;;;3.53;2.37;;;15.50;99.90;;;;;;4928175;29;20198;-64
2024/03/15 12:19:25;;;;;;;8.37;2.40;;;15.40;99.90;;;;;;4939614;28;20222;-65
2024/03/15 12:21:54;;;;;;;11.63;2.70;;;15.30;99.90;;;;;;4926830;28;20229;-64
2024/03/15 12:24:23;;;;;;;4.50;2.30;;;15.10;99.90;;;;;;4926336;29;20319;-64
2024/03/15 12:26:51;;;;;;;3.90;2.37;;;15.10;99.90;;;;;;4937190;28;20230;-64
2024/03/15 12:29:20;;;;;;;3.93;2.60;;;15.10;99.90;;;;;;4920891;28;20298;-64
2024/03/15 12:31:49;;;;;;;4.47;2.40;;;15.00;99.90;;;;;;4942827;28;20235;-64
2024/03/15 12:34:19;;;;;;;7.43;2.40;;;15.00;99.90;;;;;;4927321;29;20233;-64
2024/03/15 12:36:49;;;;;;;7.83;2.70;;;14.90;99.90;;;;;;4939359;28;20218;-64
2024/03/15 12:39:17;;;;;;;7.37;2.40;;;14.80;99.90;;;;;;4922508;29;20710;-64
2024/03/15 12:41:46;;;;;;;9.93;2.57;;;14.60;99.90;;;;;;4921122;28;20246;-63
2024/03/15 12:44:15;;;;;;;6.80;2.83;;;14.50;99.90;;;;;;4926273;28;20213;-64
2024/03/15 12:46:43;;;;;;;7.90;2.53;;;14.40;99.90;;;;;;4938213;28;20779;-64
2024/03/15 12:49:11;;;;;;;4.83;2.50;;;14.50;99.90;;;;;;4939386;28;20226;-64
2024/03/15 12:51:40;;;;;;;6.53;2.30;;;14.80;99.90;;;;;;4929351;29;20218;-64
2024/03/15 12:54:09;;;;;;;5.97;2.30;;;15.00;99.90;;;;;;4946831;28;20308;-64
2024/03/15 12:56:37;;;;;;;8.17;2.43;;;15.00;99.90;;;;;;4945696;28;20192;-63
2024/03/15 12:59:06;;;;;;;8.03;2.80;;;14.90;99.90;;;;;;4944284;28;20656;-64
2024/03/15 13:01:34;;;;;;;9.00;2.60;;;14.80;99.90;;;;;;4931825;28;20217;-64